Time;durP1;ratioP1;P1;durP2;ratioP2;P2;SDS_P1;SDS_P2;PMS_P1;PMS_P2;Temp;Humidity;BMP_temperature;BMP_pressure;BME280_temperature;BME280_humidity;BME280_pressure;Samples;Min_cycle;Max_cycle;Signal;HPM_P1;HPM_P2
2022/09/18 00:02:03;;;;;;;12.27;1.52;;;;;;;18.03;57.33;101499.47;5091087;28;20028;-69
2022/09/18 00:04:29;;;;;;;16.63;1.92;;;;;;;18.23;56.85;101491.50;5091312;28;20032;-68
2022/09/18 00:06:55;;;;;;;7.78;1.20;;;;;;;18.12;57.50;101508.81;5091119;28;20057;-70
2022/09/18 00:09:21;;;;;;;5.43;1.65;;;;;;;18.23;56.84;101510.53;5090499;28;20040;-69
2022/09/18 00:11:48;;;;;;;16.83;1.98;;;;;;;18.20;56.62;101506.41;5090713;28;20044;-70
2022/09/18 00:14:17;;;;;;;10.18;1.55;;;;;;;18.24;57.12;101495.84;5091149;28;20036;-68
2022/09/18 00:16:42;;;;;;;14.43;1.80;;;;;;;18.12;57.15;101487.84;5073415;28;20214;-68
2022/09/18 00:19:08;;;;;;;8.48;1.15;;;;;;;17.93;57.92;101492.03;5091058;28;20143;-70
2022/09/18 00:21:36;;;;;;;9.15;1.80;;;;;;;17.17;59.51;101500.41;5090982;28;20028;-69
2022/09/18 00:24:03;;;;;;;17.58;1.70;;;;;;;17.50;58.73;101498.41;5090515;28;20040;-70
2022/09/18 00:26:28;;;;;;;6.72;1.15;;;;;;;17.83;58.13;101488.38;5091087;28;20145;-69
2022/09/18 00:28:54;;;;;;;7.68;1.38;;;;;;;17.65;58.64;101492.28;5075931;28;20065;-69
2022/09/18 00:31:26;;;;;;;7.50;1.13;;;;;;;18.04;57.19;101492.97;5094546;28;20041;-70
2022/09/18 00:33:52;;;;;;;11.18;1.48;;;;;;;17.95;57.59;101489.06;5094607;28;20059;-70
2022/09/18 00:36:19;;;;;;;9.82;1.75;;;;;;;17.70;57.88;101489.63;5094647;28;20512;-68
2022/09/18 00:38:45;;;;;;;9.27;1.48;;;;;;;18.18;56.93;101486.81;5094552;28;20051;-69
2022/09/18 00:41:33;;;;;;;7.65;2.00;;;;;;;17.90;57.49;101497.19;5094222;28;20032;-70
2022/09/18 00:44:29;;;;;;;8.13;1.70;;;;;;;18.01;57.46;101494.28;5094496;28;20036;-69
2022/09/18 00:47:00;;;;;;;12.35;1.55;;;;;;;17.86;57.61;101499.59;5092845;28;20024;-69
2022/09/18 00:49:26;;;;;;;8.38;1.25;;;;;;;18.07;57.24;101511.47;5094737;28;20083;-70
2022/09/18 00:51:55;;;;;;;11.02;2.10;;;;;;;18.02;57.44;101503.28;5094072;28;20036;-70
2022/09/18 00:54:26;;;;;;;10.38;1.20;;;;;;;17.24;59.84;101512.72;5094135;28;20058;-68
2022/09/18 00:56:56;;;;;;;6.53;1.30;;;;;;;17.39;59.71;101517.53;5093926;28;20048;-70
2022/09/18 00:59:26;;;;;;;11.48;1.40;;;;;;;17.54;59.55;101521.28;5094193;28;20039;-69
2022/09/18 01:01:52;;;;;;;8.27;1.77;;;;;;;17.44;60.28;101506.72;5094496;28;20037;-69
2022/09/18 01:04:17;;;;;;;18.23;1.58;;;;;;;16.66;62.15;101507.88;5093946;28;20264;-69
2022/09/18 01:07:22;;;;;;;9.55;1.50;;;;;;;16.77;61.54;101511.53;5094023;28;20503;-69
2022/09/18 01:09:47;;;;;;;5.45;0.90;;;;;;;17.41;60.27;101499.88;5093869;28;20054;-69
2022/09/18 01:12:54;;;;;;;7.85;1.35;;;;;;;16.69;61.73;101499.22;5093831;28;20123;-69
2022/09/18 01:15:36;;;;;;;6.78;1.15;;;;;;;17.04;61.20;101488.00;5011340;28;20553;-69
2022/09/18 01:18:17;;;;;;;10.00;1.17;;;;;;;17.67;59.16;101484.69;5011201;28;20049;-69
2022/09/18 01:21:05;;;;;;;13.52;1.30;;;;;;;17.87;58.19;101478.66;5011023;28;20522;-68
2022/09/18 01:23:42;;;;;;;9.68;1.13;;;;;;;17.70;59.18;101477.94;5011018;28;20057;-68
2022/09/18 01:26:14;;;;;;;11.30;2.05;;;;;;;17.94;58.63;101479.28;5010607;28;20439;-70
2022/09/18 01:29:24;;;;;;;9.32;2.20;;;;;;;18.12;58.09;101489.78;5011669;28;20034;-69
2022/09/18 01:31:56;;;;;;;10.50;1.60;;;;;;;18.19;57.86;101491.19;5010627;28;20050;-68
2022/09/18 01:34:37;;;;;;;7.13;1.27;;;;;;;17.81;59.13;101502.25;5011394;28;20455;-69
2022/09/18 01:37:14;;;;;;;3.35;1.38;;;;;;;17.92;58.94;101500.47;5010738;28;20050;-69
2022/09/18 01:39:52;;;;;;;16.23;2.20;;;;;;;18.27;58.22;101495.34;5009614;28;20061;-70
2022/09/18 01:42:24;;;;;;;16.40;2.45;;;;;;;18.26;57.67;101499.13;4993961;28;20169;-71
2022/09/18 01:44:53;;;;;;;9.20;1.80;;;;;;;18.40;57.45;101494.88;5028897;28;20139;-70
2022/09/18 01:47:21;;;;;;;9.57;1.48;;;;;;;18.31;57.79;101485.56;5013325;28;20120;-69
2022/09/18 01:49:52;;;;;;;13.60;1.85;;;;;;;18.11;58.50;101485.41;5014193;28;20052;-69
2022/09/18 01:52:24;;;;;;;10.98;1.45;;;;;;;18.24;58.01;101474.91;5071968;28;20123;-69
2022/09/18 01:54:52;;;;;;;8.50;1.52;;;;;;;18.18;58.43;101481.38;5072650;28;20563;-68
2022/09/18 01:57:38;;;;;;;9.55;1.98;;;;;;;18.18;58.46;101491.47;5072902;28;20032;-69
2022/09/18 02:00:10;;;;;;;8.18;1.17;;;;;;;17.87;59.04;101482.19;5072770;28;20043;-70
2022/09/18 02:02:44;;;;;;;10.00;1.60;;;;;;;17.92;59.25;101478.72;5072572;28;20037;-69
2022/09/18 02:05:16;;;;;;;10.20;1.17;;;;;;;18.11;58.48;101480.78;5072338;28;20044;-71
2022/09/18 02:08:10;;;;;;;11.57;1.42;;;;;;;18.19;58.66;101483.03;5055410;28;20183;-69
2022/09/18 02:10:43;;;;;;;9.20;1.30;;;;;;;18.25;58.50;101483.88;5055019;28;20068;-68
2022/09/18 02:13:14;;;;;;;15.60;2.97;;;;;;;18.43;58.00;101475.34;5052213;28;20033;-70
2022/09/18 02:15:42;;;;;;;9.52;1.38;;;;;;;18.47;57.97;101476.47;5052597;28;20047;-69
2022/09/18 02:18:13;;;;;;;10.88;1.60;;;;;;;18.54;57.45;101479.78;5052126;28;20036;-69
2022/09/18 02:20:41;;;;;;;9.82;1.73;;;;;;;18.53;57.87;101480.88;5052068;28;20123;-69
2022/09/18 02:23:07;;;;;;;11.38;1.63;;;;;;;18.55;57.91;101480.59;5051672;28;20025;-70
2022/09/18 02:25:42;;;;;;;11.88;3.30;;;;;;;18.68;57.52;101470.06;5052513;28;20108;-69
2022/09/18 02:28:09;;;;;;;6.32;1.45;;;;;;;18.66;57.31;101474.13;5052359;28;20055;-70
2022/09/18 02:30:37;;;;;;;18.15;1.73;;;;;;;18.47;58.62;101472.91;5054775;28;20041;-70
2022/09/18 02:33:07;;;;;;;7.95;1.23;;;;;;;18.45;58.15;101465.03;5054425;28;20102;-67
2022/09/18 02:35:44;;;;;;;7.55;1.30;;;;;;;18.24;58.58;101463.19;5052312;28;20121;-69
2022/09/18 02:38:29;;;;;;;6.70;0.90;;;;;;;18.27;58.59;101452.63;5052589;28;20037;-70
2022/09/18 02:41:06;;;;;;;12.05;1.52;;;;;;;17.44;60.08;101463.22;5087904;28;20039;-69
2022/09/18 02:43:57;;;;;;;12.30;1.48;;;;;;;17.62;59.69;101459.38;5093158;28;20472;-69
2022/09/18 02:46:28;;;;;;;12.55;2.20;;;;;;;17.20;60.53;101456.41;5083171;28;20466;-68
2022/09/18 02:49:12;;;;;;;7.03;1.95;;;;;;;18.15;58.18;101441.09;5071972;28;20089;-67
2022/09/18 02:52:01;;;;;;;9.07;1.10;;;;;;;18.23;57.31;101437.06;5071557;28;20401;-68
2022/09/18 02:54:54;;;;;;;5.88;1.00;;;;;;;18.20;57.49;101438.41;5071474;28;20044;-68
2022/09/18 02:57:34;;;;;;;8.85;1.27;;;;;;;18.13;57.35;101432.38;5071537;28;20108;-70
2022/09/18 03:00:01;;;;;;;11.65;2.85;;;;;;;18.06;57.30;101437.19;5071740;28;20135;-69
2022/09/18 03:02:28;;;;;;;5.60;1.05;;;;;;;18.39;56.92;101439.66;5071663;28;20038;-70
2022/09/18 03:04:54;;;;;;;6.20;1.38;;;;;;;18.22;57.02;101444.41;5071124;28;20076;-69
2022/09/18 03:07:19;;;;;;;5.90;1.10;;;;;;;18.04;56.54;101438.56;5071359;28;20032;-69
2022/09/18 03:09:45;;;;;;;8.15;1.83;;;;;;;18.40;56.09;101435.00;5071102;28;20033;-68
2022/09/18 03:12:11;;;;;;;5.25;0.90;;;;;;;18.31;55.78;101442.03;5052443;28;20044;-69
2022/09/18 03:14:37;;;;;;;4.20;1.40;;;;;;;17.83;57.79;101442.16;5052522;28;20040;-69
2022/09/18 03:17:02;;;;;;;5.05;1.00;;;;;;;17.96;56.76;101439.88;5070795;28;20032;-70
2022/09/18 03:19:28;;;;;;;14.73;2.13;;;;;;;17.93;56.80;101434.94;5071811;28;20495;-71
2022/09/18 03:21:54;;;;;;;8.13;1.73;;;;;;;17.62;58.55;101437.63;5071120;28;20520;-70
2022/09/18 03:24:19;;;;;;;2.80;0.80;;;;;;;17.97;57.41;101437.94;5071679;28;20488;-71
2022/09/18 03:26:45;;;;;;;10.38;1.52;;;;;;;17.73;58.54;101440.19;5053385;28;20060;-70
2022/09/18 03:29:11;;;;;;;9.25;2.13;;;;;;;18.18;57.28;101437.06;5071166;28;20104;-70
2022/09/18 03:31:37;;;;;;;7.78;1.75;;;;;;;17.97;58.60;101441.50;5071461;28;20095;-71
2022/09/18 03:34:03;;;;;;;11.55;0.90;;;;;;;17.76;59.34;101436.97;5071415;28;20033;-71
2022/09/18 03:36:28;;;;;;;8.68;1.35;;;;;;;17.77;59.19;101429.63;5082814;28;20085;-74
2022/09/18 03:38:53;;;;;;;6.95;1.30;;;;;;;18.38;58.08;101440.72;5073129;28;20036;-71
2022/09/18 03:41:21;;;;;;;3.83;0.82;;;;;;;18.17;58.73;101443.56;5091337;28;20051;-71
2022/09/18 03:43:46;;;;;;;10.63;1.55;;;;;;;18.25;58.35;101443.06;5078483;28;20032;-70
2022/09/18 03:46:12;;;;;;;4.22;1.20;;;;;;;18.37;58.19;101430.94;5070618;28;20032;-71
2022/09/18 03:48:37;;;;;;;16.48;2.75;;;;;;;18.09;59.31;101433.16;5070986;28;20047;-71
2022/09/18 03:51:02;;;;;;;6.85;1.42;;;;;;;17.67;60.66;101438.50;5070861;28;20424;-70
2022/09/18 03:53:28;;;;;;;8.00;1.17;;;;;;;17.91;60.07;101434.38;5070445;28;20040;-71
2022/09/18 03:55:53;;;;;;;8.60;1.10;;;;;;;18.28;59.01;101429.75;5070669;28;20041;-70
2022/09/18 03:58:19;;;;;;;4.68;1.35;;;;;;;18.31;59.15;101421.09;5072003;28;20028;-72
2022/09/18 04:00:44;;;;;;;2.95;1.00;;;;;;;18.40;58.41;101419.50;5070512;28;20036;-71
2022/09/18 04:03:09;;;;;;;5.38;0.90;;;;;;;18.35;58.54;101416.78;5071057;28;20424;-71
2022/09/18 04:05:35;;;;;;;6.15;0.80;;;;;;;18.18;59.15;101426.16;5070811;28;20032;-70
2022/09/18 04:08:01;;;;;;;5.63;0.82;;;;;;;18.46;58.49;101434.00;5074507;28;20044;-70
2022/09/18 04:10:26;;;;;;;14.00;1.90;;;;;;;18.24;58.92;101420.47;5074828;28;20043;-70
2022/09/18 04:12:52;;;;;;;7.10;1.40;;;;;;;18.30;58.89;101413.16;5074208;28;20032;-70
2022/09/18 04:15:18;;;;;;;4.55;1.08;;;;;;;18.34;58.87;101423.28;5074666;28;20171;-70
2022/09/18 04:17:43;;;;;;;5.38;1.27;;;;;;;17.78;59.84;101421.22;5074638;28;20033;-70
2022/09/18 04:20:09;;;;;;;6.45;1.13;;;;;;;17.60;60.84;101424.31;5074829;28;20032;-71
2022/09/18 04:22:34;;;;;;;7.22;1.27;;;;;;;18.03;59.05;101421.41;5075000;28;20032;-70
2022/09/18 04:25:02;;;;;;;7.07;1.30;;;;;;;18.31;58.20;101425.72;5074558;28;20028;-72
2022/09/18 04:27:28;;;;;;;8.95;1.40;;;;;;;17.97;59.47;101438.78;5074572;28;20048;-70
2022/09/18 04:29:53;;;;;;;9.80;1.73;;;;;;;18.26;58.86;101434.66;5074481;28;20040;-70
2022/09/18 04:32:19;;;;;;;9.95;1.70;;;;;;;17.96;59.84;101445.31;5073890;28;20408;-69
2022/09/18 04:34:44;;;;;;;6.90;2.28;;;;;;;17.23;61.36;101439.63;5075325;28;20052;-70
2022/09/18 04:37:09;;;;;;;11.70;4.43;;;;;;;16.92;61.40;101424.88;5074435;28;20049;-71
2022/09/18 04:39:35;;;;;;;7.72;3.35;;;;;;;17.10;60.29;101429.16;5074375;28;20032;-70
2022/09/18 04:42:00;;;;;;;11.27;4.32;;;;;;;16.93;60.60;101434.66;5073539;28;20036;-70
2022/09/18 04:44:26;;;;;;;7.57;3.17;;;;;;;16.36;61.84;101436.81;5074384;28;20043;-70
2022/09/18 04:46:51;;;;;;;10.68;3.15;;;;;;;17.13;59.36;101440.34;5074355;28;20082;-69
2022/09/18 04:49:17;;;;;;;8.32;2.63;;;;;;;16.88;60.36;101433.78;5073908;28;20114;-69
2022/09/18 04:51:43;;;;;;;9.77;3.08;;;;;;;17.09;59.54;101428.34;5073983;28;20036;-71
2022/09/18 04:54:08;;;;;;;10.82;3.20;;;;;;;17.68;58.36;101415.69;5073836;28;20047;-70
2022/09/18 04:56:34;;;;;;;17.60;4.60;;;;;;;17.86;57.87;101414.47;5073831;28;20508;-71
2022/09/18 04:58:59;;;;;;;13.35;4.82;;;;;;;17.86;57.08;101419.91;5073852;28;20480;-71
2022/09/18 05:01:25;;;;;;;14.23;5.60;;;;;;;17.89;57.13;101420.22;5074142;28;20035;-70
2022/09/18 05:03:50;;;;;;;14.00;5.43;;;;;;;17.97;56.37;101424.34;5073909;28;20036;-71
2022/09/18 05:06:15;;;;;;;15.90;5.97;;;;;;;18.16;56.41;101410.09;5074136;28;20033;-71
2022/09/18 05:08:41;;;;;;;8.25;4.63;;;;;;;18.25;56.17;101415.88;5074053;28;20032;-70
2022/09/18 05:11:06;;;;;;;9.55;4.15;;;;;;;18.10;56.14;101418.50;5073572;28;20059;-70
2022/09/18 05:13:31;;;;;;;9.43;3.92;;;;;;;18.00;56.51;101415.69;5055476;28;20500;-71
2022/09/18 05:15:57;;;;;;;5.70;3.35;;;;;;;18.02;56.43;101408.09;5065379;28;20040;-70
2022/09/18 05:18:23;;;;;;;5.65;2.72;;;;;;;17.93;56.45;101424.06;5053593;28;20040;-69
2022/09/18 05:20:48;;;;;;;7.13;2.53;;;;;;;18.24;55.31;101409.59;5053403;28;20037;-69
2022/09/18 05:23:14;;;;;;;6.20;2.67;;;;;;;18.30;55.50;101411.28;5053303;28;20037;-71
2022/09/18 05:25:40;;;;;;;6.22;2.97;;;;;;;18.44;55.06;101408.94;5053785;28;20040;-70
2022/09/18 05:28:06;;;;;;;3.88;1.88;;;;;;;18.32;55.25;101419.16;5058733;28;20036;-72
2022/09/18 05:30:31;;;;;;;6.75;1.63;;;;;;;18.46;54.59;101412.22;5073316;28;20037;-71
2022/09/18 05:33:07;;;;;;;4.47;1.98;;;;;;;18.42;55.16;101419.22;5056270;28;20041;-70
2022/09/18 05:35:34;;;;;;;4.75;1.50;;;;;;;17.77;56.70;101418.75;5060118;28;20116;-70
2022/09/18 05:38:01;;;;;;;8.18;0.95;;;;;;;18.06;56.47;101428.25;5073187;28;20503;-70
2022/09/18 05:40:31;;;;;;;4.78;0.95;;;;;;;18.09;56.16;101419.56;5073921;28;20444;-71
2022/09/18 05:42:57;;;;;;;3.20;1.40;;;;;;;18.18;55.77;101424.25;5073099;28;20066;-71
2022/09/18 05:45:23;;;;;;;3.97;0.82;;;;;;;17.74;57.13;101420.09;5072893;28;20105;-72
2022/09/18 05:47:56;;;;;;;3.78;1.13;;;;;;;18.08;56.57;101415.22;5073179;28;20044;-70
2022/09/18 05:50:23;;;;;;;2.67;0.70;;;;;;;18.12;56.79;101410.88;5073233;28;20040;-70
2022/09/18 05:53:10;;;;;;;4.97;0.68;;;;;;;17.89;57.46;101412.06;5073521;28;20075;-70
2022/09/18 05:55:36;;;;;;;2.58;0.70;;;;;;;18.00;56.76;101412.97;5073315;28;20043;-70
2022/09/18 05:58:03;;;;;;;6.90;0.90;;;;;;;17.88;57.78;101409.59;5072880;28;20512;-70
2022/09/18 06:00:30;;;;;;;7.55;1.95;;;;;;;17.97;57.19;101408.03;5072767;28;20056;-71
2022/09/18 06:02:59;;;;;;;2.75;0.73;;;;;;;18.31;56.45;101404.75;5073169;28;20385;-71
2022/09/18 06:05:25;;;;;;;6.75;1.13;;;;;;;17.42;58.93;101405.59;5073001;28;20036;-71
2022/09/18 06:07:51;;;;;;;12.30;1.02;;;;;;;17.80;58.10;101413.63;5073404;28;20554;-71
2022/09/18 06:10:18;;;;;;;10.13;0.98;;;;;;;17.83;57.74;101407.66;5072874;28;20032;-70
2022/09/18 06:12:44;;;;;;;4.72;0.45;;;;;;;18.02;57.09;101410.81;5072548;28;20068;-70
2022/09/18 06:15:10;;;;;;;5.13;0.75;;;;;;;18.10;56.75;101407.59;5072736;28;20111;-70
2022/09/18 06:17:36;;;;;;;9.23;1.15;;;;;;;17.80;57.84;101413.63;5072824;28;20522;-71
2022/09/18 06:20:01;;;;;;;6.82;0.68;;;;;;;18.29;57.00;101404.22;5072799;28;20036;-71
2022/09/18 06:22:27;;;;;;;7.20;1.52;;;;;;;18.75;55.76;101402.56;5073418;28;20029;-72
2022/09/18 06:24:52;;;;;;;7.25;1.25;;;;;;;18.50;57.04;101399.72;5070458;28;20036;-70
2022/09/18 06:27:18;;;;;;;5.80;1.00;;;;;;;18.17;57.39;101397.31;5072063;28;20059;-69
2022/09/18 06:29:43;;;;;;;10.73;1.23;;;;;;;17.96;58.10;101390.91;5072958;28;20039;-71
2022/09/18 06:32:09;;;;;;;10.20;1.08;;;;;;;18.31;58.37;101396.59;5062080;28;20049;-70
2022/09/18 06:34:34;;;;;;;5.13;1.02;;;;;;;18.54;57.58;101394.56;5052910;28;20041;-70
2022/09/18 06:37:00;;;;;;;13.10;1.80;;;;;;;17.88;60.10;101396.00;5052568;28;20114;-71
2022/09/18 06:39:25;;;;;;;5.68;0.75;;;;;;;18.01;59.24;101398.28;5052444;28;20045;-69
2022/09/18 06:41:51;;;;;;;5.78;1.38;;;;;;;18.71;57.62;101409.63;5052007;28;20033;-75
2022/09/18 06:44:16;;;;;;;8.25;1.10;;;;;;;18.61;57.46;101414.22;5052019;28;20497;-70
2022/09/18 06:46:42;;;;;;;4.95;1.25;;;;;;;18.70;57.97;101431.69;5052394;28;20037;-70
2022/09/18 06:49:07;;;;;;;4.78;0.90;;;;;;;17.62;61.20;101438.44;5051355;28;20033;-71
2022/09/18 06:51:32;;;;;;;11.48;1.63;;;;;;;17.97;60.18;101446.94;5051553;28;20045;-69
2022/09/18 06:53:58;;;;;;;6.35;1.35;;;;;;;17.31;62.19;101440.00;5051253;28;20029;-69
2022/09/18 06:56:23;;;;;;;6.82;0.98;;;;;;;17.41;62.00;101442.81;5051119;28;20090;-70
2022/09/18 06:58:52;;;;;;;7.10;1.50;;;;;;;17.57;61.34;101440.31;5051816;28;20036;-70
2022/09/18 07:01:17;;;;;;;6.93;0.90;;;;;;;17.83;59.99;101426.69;5051361;28;20025;-71
2022/09/18 07:03:43;;;;;;;16.02;2.00;;;;;;;17.32;61.71;101435.38;5051182;28;20032;-72
2022/09/18 07:06:09;;;;;;;7.60;1.75;;;;;;;17.66;61.54;101441.47;5051481;28;20068;-70
2022/09/18 07:08:34;;;;;;;8.27;1.40;;;;;;;17.62;61.92;101446.59;5051615;28;20067;-70
2022/09/18 07:11:01;;;;;;;7.30;0.98;;;;;;;17.44;62.39;101447.75;5071018;28;20037;-71
2022/09/18 07:13:31;;;;;;;9.45;1.40;;;;;;;18.26;59.86;101434.66;5071227;28;20048;-69
2022/09/18 07:15:57;;;;;;;3.90;1.10;;;;;;;18.21;60.17;101439.22;5071040;28;20040;-70
2022/09/18 07:18:23;;;;;;;6.72;1.25;;;;;;;18.18;60.23;101431.59;5071053;28;20029;-71
2022/09/18 07:20:49;;;;;;;11.27;2.22;;;;;;;18.01;61.17;101429.03;5070550;28;20032;-69
2022/09/18 07:23:14;;;;;;;4.30;1.50;;;;;;;18.52;59.26;101429.41;5070627;28;20511;-71
2022/09/18 07:25:40;;;;;;;9.98;1.95;;;;;;;18.33;59.37;101424.38;5071304;28;20078;-70
2022/09/18 07:28:07;;;;;;;5.75;1.23;;;;;;;18.65;58.61;101421.59;5052044;28;20035;-69
2022/09/18 07:30:37;;;;;;;10.85;2.03;;;;;;;18.34;59.80;101425.16;5070382;28;20032;-68
2022/09/18 07:33:03;;;;;;;8.65;1.38;;;;;;;18.68;58.83;101431.94;5070493;28;20566;-71
2022/09/18 07:35:30;;;;;;;5.20;1.45;;;;;;;17.97;60.59;101441.50;5070329;28;20492;-70
2022/09/18 07:37:57;;;;;;;8.50;1.38;;;;;;;17.88;60.87;101440.34;5064793;28;20024;-70
2022/09/18 07:40:23;;;;;;;11.15;2.03;;;;;;;17.64;61.68;101438.19;5060473;28;20020;-71
2022/09/18 07:42:48;;;;;;;4.97;1.00;;;;;;;18.04;60.29;101436.66;5077591;28;20423;-70
2022/09/18 07:45:14;;;;;;;6.85;1.13;;;;;;;18.40;59.31;101435.84;5070423;28;20033;-71
2022/09/18 07:47:39;;;;;;;13.02;2.53;;;;;;;17.83;60.52;101434.00;5070701;28;20123;-71
2022/09/18 07:50:05;;;;;;;5.05;1.10;;;;;;;18.14;60.15;101434.00;5070384;28;20036;-70
2022/09/18 07:52:30;;;;;;;8.15;0.93;;;;;;;18.02;60.19;101422.50;5071180;28;20020;-70
2022/09/18 07:54:56;;;;;;;13.32;1.20;;;;;;;18.17;59.55;101422.63;5070226;28;20112;-69
2022/09/18 07:57:22;;;;;;;3.95;1.20;;;;;;;18.83;58.35;101420.31;5075824;28;20408;-69
2022/09/18 07:59:47;;;;;;;7.53;1.65;;;;;;;18.69;58.32;101424.63;5084485;28;20065;-71
2022/09/18 08:02:12;;;;;;;5.90;0.88;;;;;;;18.52;59.34;101424.78;5078669;28;20036;-70
2022/09/18 08:04:38;;;;;;;10.07;1.55;;;;;;;18.26;60.11;101422.94;5077895;28;20025;-70
2022/09/18 08:07:04;;;;;;;5.60;1.13;;;;;;;18.57;59.70;101413.94;5080707;28;20135;-71
2022/09/18 08:09:29;;;;;;;5.15;0.95;;;;;;;18.29;60.40;101416.97;5076991;28;20032;-71
2022/09/18 08:11:55;;;;;;;6.20;1.23;;;;;;;18.23;59.94;101418.84;5081816;28;20028;-71
2022/09/18 08:14:21;;;;;;;8.00;1.00;;;;;;;18.70;59.14;101410.72;5079420;28;20032;-69
2022/09/18 08:16:46;;;;;;;8.45;2.05;;;;;;;18.55;59.62;101415.28;5083660;28;20107;-71
2022/09/18 08:19:12;;;;;;;8.27;1.45;;;;;;;18.32;60.63;101419.16;5061427;28;20059;-72
2022/09/18 08:21:37;;;;;;;10.90;1.20;;;;;;;18.93;58.92;101410.28;5082472;28;20036;-70
2022/09/18 08:24:03;;;;;;;7.25;1.55;;;;;;;18.75;59.29;101413.47;5082672;28;20037;-71
2022/09/18 08:26:28;;;;;;;8.10;0.98;;;;;;;19.17;58.18;101418.81;5081560;28;20246;-71
2022/09/18 08:28:54;;;;;;;11.07;1.83;;;;;;;19.35;57.44;101410.19;5082478;28;20418;-69
2022/09/18 08:31:19;;;;;;;6.45;1.55;;;;;;;18.47;59.83;101411.16;5082347;28;20411;-69
2022/09/18 08:33:44;;;;;;;8.98;1.63;;;;;;;18.62;59.36;101419.38;5081681;28;20528;-71
2022/09/18 08:36:10;;;;;;;5.50;1.45;;;;;;;19.14;57.84;101420.16;5080060;28;20063;-71
2022/09/18 08:38:35;;;;;;;9.55;1.33;;;;;;;19.05;58.36;101416.31;5081221;28;20036;-71
2022/09/18 08:41:13;;;;;;;5.05;0.75;;;;;;;19.19;57.85;101422.09;5080032;28;20020;-71
2022/09/18 08:44:09;;;;;;;8.68;1.13;;;;;;;19.02;58.40;101429.66;5078585;28;20036;-71
2022/09/18 08:46:42;;;;;;;5.45;0.57;;;;;;;19.16;58.02;101422.63;5081642;28;20052;-71
2022/09/18 08:49:21;;;;;;;6.22;1.52;;;;;;;18.56;59.11;101450.38;5082481;28;20055;-71
2022/09/18 08:52:09;;;;;;;7.55;1.15;;;;;;;18.28;60.44;101465.13;5082905;28;20107;-71
2022/09/18 08:54:49;;;;;;;11.85;1.73;;;;;;;17.79;62.14;101452.75;5084033;28;20067;-70
2022/09/18 08:57:53;;;;;;;3.63;0.57;;;;;;;18.20;60.21;101438.41;5086177;28;20043;-71
2022/09/18 09:00:30;;;;;;;3.28;0.77;;;;;;;18.06;59.81;101441.84;5021284;28;20045;-72
2022/09/18 09:03:19;;;;;;;3.45;1.08;;;;;;;18.31;59.55;101440.13;5020019;28;20044;-70
2022/09/18 09:05:54;;;;;;;6.35;1.38;;;;;;;18.46;60.06;101438.59;5020732;28;20037;-71
2022/09/18 09:08:42;;;;;;;7.38;0.82;;;;;;;17.40;62.16;101443.91;5019957;28;20120;-72
2022/09/18 09:11:25;;;;;;;4.95;0.70;;;;;;;18.03;61.67;101431.47;5021432;28;20053;-71
2022/09/18 09:14:37;;;;;;;8.18;0.90;;;;;;;17.69;61.12;101433.63;5021563;28;20045;-70
2022/09/18 09:17:16;;;;;;;4.35;0.70;;;;;;;17.34;61.56;101427.78;4930779;29;20084;-70
2022/09/18 09:20:10;;;;;;;3.72;0.55;;;;;;;17.37;61.85;101421.88;4931735;29;20043;-70
2022/09/18 09:22:44;;;;;;;2.63;0.73;;;;;;;18.06;59.53;101415.44;4927368;29;20052;-71
2022/09/18 09:25:12;;;;;;;1.17;0.40;;;;;;;17.91;59.28;101419.94;4930872;29;20059;-71
2022/09/18 09:27:42;;;;;;;4.38;0.63;;;;;;;18.30;59.29;101424.06;4930955;29;20195;-70
2022/09/18 09:30:17;;;;;;;2.83;0.73;;;;;;;18.36;59.76;101421.09;4930686;29;20054;-70
2022/09/18 09:32:54;;;;;;;4.88;0.60;;;;;;;18.31;58.78;101422.97;4929963;29;20060;-70
2022/09/18 09:35:29;;;;;;;1.90;0.88;;;;;;;18.29;59.38;101423.25;4988374;28;21281;-70
2022/09/18 09:37:57;;;;;;;2.90;0.50;;;;;;;18.67;59.13;101421.34;4991798;28;20045;-69
2022/09/18 09:40:40;;;;;;;2.78;0.70;;;;;;;18.55;58.89;101437.06;4994239;28;20434;-71
2022/09/18 09:43:19;;;;;;;3.97;1.08;;;;;;;18.73;59.47;101436.63;4992703;28;20041;-71
2022/09/18 09:45:52;;;;;;;5.45;2.40;;;;;;;18.47;59.35;101432.94;4993533;28;20046;-71
2022/09/18 09:48:26;;;;;;;2.00;1.00;;;;;;;18.81;59.39;101426.00;4993104;28;20057;-71
2022/09/18 09:51:04;;;;;;;4.80;1.00;;;;;;;18.87;59.32;101429.59;4988875;28;20042;-72
2022/09/18 09:53:29;;;;;;;4.13;0.80;;;;;;;18.84;59.57;101420.06;5050531;28;20142;-72
2022/09/18 09:56:21;;;;;;;3.20;1.35;;;;;;;18.82;59.64;101408.59;5086160;28;20480;-71
2022/09/18 09:59:15;;;;;;;5.60;1.10;;;;;;;18.66;59.79;101411.50;5084552;28;20487;-71
2022/09/18 10:01:47;;;;;;;6.18;1.15;;;;;;;18.33;60.87;101416.22;5084012;28;20123;-71
2022/09/18 10:04:19;;;;;;;2.15;0.80;;;;;;;18.56;60.38;101416.91;5083197;28;20043;-71
2022/09/18 10:07:06;;;;;;;4.10;0.80;;;;;;;18.00;61.98;101421.13;5088857;28;20514;-72
2022/09/18 10:09:57;;;;;;;4.10;0.93;;;;;;;18.59;60.94;101409.03;5088489;28;20032;-71
2022/09/18 10:12:53;;;;;;;4.43;0.90;;;;;;;18.88;60.53;101415.72;5086280;28;20036;-71
2022/09/18 10:15:40;;;;;;;8.48;1.33;;;;;;;18.41;61.25;101423.06;5083719;28;20075;-72
2022/09/18 10:18:13;;;;;;;5.45;0.98;;;;;;;18.44;61.78;101419.03;5085724;28;20053;-71
2022/09/18 10:20:39;;;;;;;9.77;1.92;;;;;;;18.74;61.09;101424.63;5080982;28;20032;-73
2022/09/18 10:23:15;;;;;;;3.15;0.93;;;;;;;18.84;60.48;101422.78;5082850;28;20024;-72
2022/09/18 10:25:48;;;;;;;6.40;1.02;;;;;;;18.81;60.93;101419.78;5085805;28;20149;-75
2022/09/18 10:28:17;;;;;;;7.22;1.63;;;;;;;18.73;60.55;101423.78;5088132;28;20028;-72
2022/09/18 10:30:57;;;;;;;5.57;0.73;;;;;;;18.82;61.00;101422.22;5072045;28;20040;-72
2022/09/18 10:33:37;;;;;;;;;;;;;;;18.74;61.00;101424.63;5090488;28;20055;-72
2022/09/18 10:36:10;;;;;;;6.78;1.17;;;;;;;18.72;61.67;101421.34;5083953;28;19916;-73
2022/09/18 10:38:38;;;;;;;6.55;0.98;;;;;;;18.74;61.22;101425.44;5088449;28;20086;-72
2022/09/18 10:41:19;;;;;;;5.55;1.63;;;;;;;18.90;61.22;101419.00;5086538;28;20123;-72
2022/09/18 10:43:55;;;;;;;6.93;1.25;;;;;;;18.66;61.75;101419.69;5088044;28;20028;-72
2022/09/18 10:46:28;;;;;;;8.55;1.25;;;;;;;18.45;61.88;101426.09;5086572;28;20500;-71
2022/09/18 10:48:53;;;;;;;10.52;1.30;;;;;;;18.78;61.27;101429.28;5083678;28;20036;-71
2022/09/18 10:51:20;;;;;;;8.40;1.25;;;;;;;19.07;60.15;101429.66;5087153;28;20036;-72
2022/09/18 10:54:00;;;;;;;5.70;1.45;;;;;;;19.19;60.15;101419.34;5072582;28;20492;-72
2022/09/18 10:56:26;;;;;;;3.22;0.65;;;;;;;19.44;59.90;101418.66;5086960;28;20069;-72
2022/09/18 10:58:51;;;;;;;7.68;1.20;;;;;;;19.34;59.47;101408.53;5091423;28;20040;-72
2022/09/18 11:01:18;;;;;;;8.93;1.10;;;;;;;19.52;59.57;101415.41;5087847;28;20043;-71
2022/09/18 11:03:48;;;;;;;4.50;1.13;;;;;;;19.00;61.04;101415.50;5089355;28;20398;-70
2022/09/18 11:06:22;;;;;;;6.57;0.82;;;;;;;18.48;62.60;101420.94;5084525;28;20043;-72
2022/09/18 11:08:50;;;;;;;7.68;1.13;;;;;;;18.95;61.67;101421.72;5080930;28;20043;-71
2022/09/18 11:11:36;;;;;;;7.35;2.05;;;;;;;18.94;61.64;101420.09;5061064;28;20028;-71
2022/09/18 11:14:05;;;;;;;7.30;2.22;;;;;;;19.14;61.32;101424.81;5083886;28;20031;-71
2022/09/18 11:16:41;;;;;;;7.20;1.42;;;;;;;19.27;60.84;101421.56;5085706;28;20032;-72
2022/09/18 11:19:22;;;;;;;4.90;1.00;;;;;;;18.79;62.28;101417.28;5086955;28;20123;-73
2022/09/18 11:21:49;;;;;;;;;;;;;;;19.28;60.86;101426.75;5085873;28;20351;-71
2022/09/18 11:24:22;;;;;;;7.15;1.10;;;;;;;19.50;60.35;101414.84;5086403;28;20010;-72
2022/09/18 11:26:52;;;;;;;7.07;2.15;;;;;;;18.88;61.34;101415.72;5084157;28;20404;-72
2022/09/18 11:29:24;;;;;;;7.57;1.98;;;;;;;18.49;62.84;101427.22;5081347;28;20067;-72
2022/09/18 11:32:08;;;;;;;7.65;1.95;;;;;;;19.27;60.62;101433.28;5062454;28;20052;-72
2022/09/18 11:34:43;;;;;;;5.78;1.70;;;;;;;18.97;61.50;101419.56;5074127;28;20048;-71
2022/09/18 11:37:12;;;;;;;6.63;1.20;;;;;;;19.46;60.22;101409.09;5080371;28;20037;-70
2022/09/18 11:39:43;;;;;;;9.45;1.65;;;;;;;19.71;59.29;101403.69;5085790;28;20048;-72
2022/09/18 11:42:12;;;;;;;10.65;1.20;;;;;;;19.77;59.08;101408.03;5081898;28;20036;-71